sensor_id;sensor_type;location;lat;lon;timestamp;P1;durP1;ratioP1;P2;durP2;ratioP2
54428;SDS011;40337;52.978;6.310;2022-12-18T00:00:27;81.72;;;44.20;;
54428;SDS011;40337;52.978;6.310;2022-12-18T00:02:53;73.97;;;42.42;;
54428;SDS011;40337;52.978;6.310;2022-12-18T00:05:18;73.55;;;42.33;;
54428;SDS011;40337;52.978;6.310;2022-12-18T00:07:44;75.80;;;43.03;;
54428;SDS011;40337;52.978;6.310;2022-12-18T00:10:09;82.93;;;45.83;;
54428;SDS011;40337;52.978;6.310;2022-12-18T00:12:35;79.70;;;43.97;;
54428;SDS011;40337;52.978;6.310;2022-12-18T00:15:00;80.90;;;44.25;;
54428;SDS011;40337;52.978;6.310;2022-12-18T00:17:26;77.75;;;44.50;;
54428;SDS011;40337;52.978;6.310;2022-12-18T00:19:51;73.90;;;41.88;;
54428;SDS011;40337;52.978;6.310;2022-12-18T00:22:18;78.20;;;44.35;;
54428;SDS011;40337;52.978;6.310;2022-12-18T00:24:43;77.85;;;42.80;;
54428;SDS011;40337;52.978;6.310;2022-12-18T00:27:09;82.97;;;43.63;;
54428;SDS011;40337;52.978;6.310;2022-12-18T00:29:34;84.95;;;45.08;;
54428;SDS011;40337;52.978;6.310;2022-12-18T00:32:00;78.72;;;44.20;;
54428;SDS011;40337;52.978;6.310;2022-12-18T00:34:25;82.70;;;45.08;;
54428;SDS011;40337;52.978;6.310;2022-12-18T00:36:51;82.50;;;45.88;;
54428;SDS011;40337;52.978;6.310;2022-12-18T00:39:17;79.50;;;43.83;;
54428;SDS011;40337;52.978;6.310;2022-12-18T00:41:42;79.20;;;44.28;;
54428;SDS011;40337;52.978;6.310;2022-12-18T00:44:26;76.60;;;42.85;;
54428;SDS011;40337;52.978;6.310;2022-12-18T00:46:52;80.75;;;43.17;;
54428;SDS011;40337;52.978;6.310;2022-12-18T00:49:18;78.50;;;43.40;;
54428;SDS011;40337;52.978;6.310;2022-12-18T00:51:44;75.20;;;41.05;;
54428;SDS011;40337;52.978;6.310;2022-12-18T00:54:10;72.93;;;41.88;;
54428;SDS011;40337;52.978;6.310;2022-12-18T00:56:36;73.55;;;40.65;;
54428;SDS011;40337;52.978;6.310;2022-12-18T00:59:02;72.97;;;41.53;;
54428;SDS011;40337;52.978;6.310;2022-12-18T01:01:28;73.82;;;41.58;;
54428;SDS011;40337;52.978;6.310;2022-12-18T01:03:53;69.07;;;40.20;;
54428;SDS011;40337;52.978;6.310;2022-12-18T01:06:22;79.35;;;43.15;;
54428;SDS011;40337;52.978;6.310;2022-12-18T01:08:47;73.68;;;41.53;;
54428;SDS011;40337;52.978;6.310;2022-12-18T01:11:14;69.18;;;40.22;;
54428;SDS011;40337;52.978;6.310;2022-12-18T01:13:42;69.57;;;40.22;;
54428;SDS011;40337;52.978;6.310;2022-12-18T01:16:10;70.65;;;39.92;;
54428;SDS011;40337;52.978;6.310;2022-12-18T01:18:37;63.47;;;38.47;;
54428;SDS011;40337;52.978;6.310;2022-12-18T01:21:06;65.78;;;38.72;;
54428;SDS011;40337;52.978;6.310;2022-12-18T01:23:34;64.25;;;39.10;;
54428;SDS011;40337;52.978;6.310;2022-12-18T01:26:06;66.30;;;38.20;;
54428;SDS011;40337;52.978;6.310;2022-12-18T01:28:33;59.20;;;36.35;;
54428;SDS011;40337;52.978;6.310;2022-12-18T01:31:13;67.70;;;38.75;;
54428;SDS011;40337;52.978;6.310;2022-12-18T01:33:52;67.07;;;38.60;;
54428;SDS011;40337;52.978;6.310;2022-12-18T01:36:19;69.85;;;40.47;;
54428;SDS011;40337;52.978;6.310;2022-12-18T01:38:47;66.25;;;37.25;;
54428;SDS011;40337;52.978;6.310;2022-12-18T01:41:14;67.30;;;40.30;;
54428;SDS011;40337;52.978;6.310;2022-12-18T01:43:45;69.28;;;40.30;;
54428;SDS011;40337;52.978;6.310;2022-12-18T01:46:25;65.25;;;38.17;;
54428;SDS011;40337;52.978;6.310;2022-12-18T01:48:56;60.53;;;36.55;;
54428;SDS011;40337;52.978;6.310;2022-12-18T01:51:24;60.63;;;37.97;;
54428;SDS011;40337;52.978;6.310;2022-12-18T01:53:52;65.28;;;38.63;;
54428;SDS011;40337;52.978;6.310;2022-12-18T01:56:18;60.53;;;38.13;;
54428;SDS011;40337;52.978;6.310;2022-12-18T01:58:56;60.60;;;36.75;;
54428;SDS011;40337;52.978;6.310;2022-12-18T02:01:26;58.60;;;36.70;;
54428;SDS011;40337;52.978;6.310;2022-12-18T02:03:52;60.47;;;37.38;;
54428;SDS011;40337;52.978;6.310;2022-12-18T02:06:23;60.10;;;37.65;;
54428;SDS011;40337;52.978;6.310;2022-12-18T02:11:49;59.15;;;35.80;;
54428;SDS011;40337;52.978;6.310;2022-12-18T02:17:22;59.78;;;35.83;;
54428;SDS011;40337;52.978;6.310;2022-12-18T02:20:09;58.45;;;36.95;;
54428;SDS011;40337;52.978;6.310;2022-12-18T02:25:33;60.45;;;36.88;;
54428;SDS011;40337;52.978;6.310;2022-12-18T02:28:23;57.55;;;35.53;;
54428;SDS011;40337;52.978;6.310;2022-12-18T02:30:53;62.13;;;38.03;;
54428;SDS011;40337;52.978;6.310;2022-12-18T02:33:21;60.58;;;38.05;;
54428;SDS011;40337;52.978;6.310;2022-12-18T02:35:49;65.40;;;38.78;;
54428;SDS011;40337;52.978;6.310;2022-12-18T02:38:16;64.88;;;39.97;;
54428;SDS011;40337;52.978;6.310;2022-12-18T02:40:42;65.57;;;40.50;;
54428;SDS011;40337;52.978;6.310;2022-12-18T02:43:10;67.57;;;40.88;;
54428;SDS011;40337;52.978;6.310;2022-12-18T02:45:47;69.57;;;41.97;;
54428;SDS011;40337;52.978;6.310;2022-12-18T02:48:17;67.85;;;40.53;;
54428;SDS011;40337;52.978;6.310;2022-12-18T02:50:50;65.22;;;40.10;;
54428;SDS011;40337;52.978;6.310;2022-12-18T02:53:48;65.10;;;40.60;;
54428;SDS011;40337;52.978;6.310;2022-12-18T02:56:26;69.15;;;42.00;;
54428;SDS011;40337;52.978;6.310;2022-12-18T02:59:04;67.30;;;40.63;;
54428;SDS011;40337;52.978;6.310;2022-12-18T03:01:43;68.00;;;39.85;;
54428;SDS011;40337;52.978;6.310;2022-12-18T03:04:26;63.83;;;39.70;;
54428;SDS011;40337;52.978;6.310;2022-12-18T03:07:02;67.07;;;39.83;;
54428;SDS011;40337;52.978;6.310;2022-12-18T03:09:34;63.28;;;40.08;;
54428;SDS011;40337;52.978;6.310;2022-12-18T03:12:27;63.88;;;39.75;;
54428;SDS011;40337;52.978;6.310;2022-12-18T03:17:38;60.60;;;37.70;;
54428;SDS011;40337;52.978;6.310;2022-12-18T03:20:10;62.80;;;37.97;;
54428;SDS011;40337;52.978;6.310;2022-12-18T03:22:39;56.63;;;35.67;;
54428;SDS011;40337;52.978;6.310;2022-12-18T03:25:08;59.33;;;36.30;;
54428;SDS011;40337;52.978;6.310;2022-12-18T03:27:38;55.63;;;35.95;;
54428;SDS011;40337;52.978;6.310;2022-12-18T03:30:08;53.85;;;35.15;;
54428;SDS011;40337;52.978;6.310;2022-12-18T03:32:46;55.47;;;35.00;;
54428;SDS011;40337;52.978;6.310;2022-12-18T03:35:18;54.40;;;34.53;;
54428;SDS011;40337;52.978;6.310;2022-12-18T03:37:49;55.20;;;34.10;;
54428;SDS011;40337;52.978;6.310;2022-12-18T03:40:14;53.85;;;34.53;;
54428;SDS011;40337;52.978;6.310;2022-12-18T03:42:48;52.38;;;34.08;;
54428;SDS011;40337;52.978;6.310;2022-12-18T03:45:19;52.28;;;33.08;;
54428;SDS011;40337;52.978;6.310;2022-12-18T03:53:05;48.43;;;32.00;;
54428;SDS011;40337;52.978;6.310;2022-12-18T03:55:51;47.13;;;30.45;;
54428;SDS011;40337;52.978;6.310;2022-12-18T03:58:18;49.35;;;31.63;;
54428;SDS011;40337;52.978;6.310;2022-12-18T04:00:47;44.22;;;30.67;;
54428;SDS011;40337;52.978;6.310;2022-12-18T04:03:15;47.15;;;31.48;;
54428;SDS011;40337;52.978;6.310;2022-12-18T04:05:43;44.33;;;30.35;;
54428;SDS011;40337;52.978;6.310;2022-12-18T04:08:10;45.55;;;30.67;;
54428;SDS011;40337;52.978;6.310;2022-12-18T04:10:35;46.20;;;30.38;;
54428;SDS011;40337;52.978;6.310;2022-12-18T04:13:01;51.05;;;31.10;;
54428;SDS011;40337;52.978;6.310;2022-12-18T04:15:27;47.80;;;30.42;;
54428;SDS011;40337;52.978;6.310;2022-12-18T04:17:52;45.90;;;30.67;;
54428;SDS011;40337;52.978;6.310;2022-12-18T04:20:18;46.17;;;29.85;;
54428;SDS011;40337;52.978;6.310;2022-12-18T04:22:44;48.33;;;30.77;;
54428;SDS011;40337;52.978;6.310;2022-12-18T04:25:09;47.47;;;31.40;;
54428;SDS011;40337;52.978;6.310;2022-12-18T04:27:36;46.80;;;29.55;;
54428;SDS011;40337;52.978;6.310;2022-12-18T04:30:02;47.35;;;30.42;;
54428;SDS011;40337;52.978;6.310;2022-12-18T04:32:28;44.85;;;29.65;;
54428;SDS011;40337;52.978;6.310;2022-12-18T04:34:54;44.53;;;29.58;;
54428;SDS011;40337;52.978;6.310;2022-12-18T04:37:19;43.30;;;28.80;;
54428;SDS011;40337;52.978;6.310;2022-12-18T04:39:45;44.05;;;27.75;;
54428;SDS011;40337;52.978;6.310;2022-12-18T04:42:10;43.13;;;27.98;;
54428;SDS011;40337;52.978;6.310;2022-12-18T04:44:36;45.08;;;28.58;;
54428;SDS011;40337;52.978;6.310;2022-12-18T04:47:02;43.75;;;28.77;;
54428;SDS011;40337;52.978;6.310;2022-12-18T04:49:27;45.33;;;29.10;;
54428;SDS011;40337;52.978;6.310;2022-12-18T04:51:53;44.20;;;28.30;;
54428;SDS011;40337;52.978;6.310;2022-12-18T04:54:18;47.30;;;29.05;;
54428;SDS011;40337;52.978;6.310;2022-12-18T04:56:44;44.95;;;29.00;;
54428;SDS011;40337;52.978;6.310;2022-12-18T04:59:09;46.20;;;29.20;;
54428;SDS011;40337;52.978;6.310;2022-12-18T05:01:35;51.00;;;29.63;;
54428;SDS011;40337;52.978;6.310;2022-12-18T05:04:01;44.78;;;27.77;;
54428;SDS011;40337;52.978;6.310;2022-12-18T05:06:27;48.65;;;30.17;;
54428;SDS011;40337;52.978;6.310;2022-12-18T05:08:53;51.13;;;29.65;;
54428;SDS011;40337;52.978;6.310;2022-12-18T05:11:18;50.72;;;30.52;;
54428;SDS011;40337;52.978;6.310;2022-12-18T05:13:44;48.72;;;29.80;;
54428;SDS011;40337;52.978;6.310;2022-12-18T05:16:10;45.92;;;29.00;;
54428;SDS011;40337;52.978;6.310;2022-12-18T05:18:36;48.30;;;29.10;;
54428;SDS011;40337;52.978;6.310;2022-12-18T05:21:02;48.72;;;28.27;;
54428;SDS011;40337;52.978;6.310;2022-12-18T05:23:28;42.90;;;27.92;;
54428;SDS011;40337;52.978;6.310;2022-12-18T05:25:59;46.45;;;28.27;;
54428;SDS011;40337;52.978;6.310;2022-12-18T05:28:26;46.13;;;28.23;;
54428;SDS011;40337;52.978;6.310;2022-12-18T05:30:55;46.45;;;28.40;;
54428;SDS011;40337;52.978;6.310;2022-12-18T05:33:23;45.75;;;28.45;;
54428;SDS011;40337;52.978;6.310;2022-12-18T05:35:51;45.80;;;27.65;;
54428;SDS011;40337;52.978;6.310;2022-12-18T05:38:18;43.92;;;27.27;;
54428;SDS011;40337;52.978;6.310;2022-12-18T05:40:44;43.75;;;26.90;;
54428;SDS011;40337;52.978;6.310;2022-12-18T05:43:10;45.05;;;26.77;;
54428;SDS011;40337;52.978;6.310;2022-12-18T05:45:36;41.55;;;26.77;;
54428;SDS011;40337;52.978;6.310;2022-12-18T05:48:03;44.97;;;26.98;;
54428;SDS011;40337;52.978;6.310;2022-12-18T05:50:29;42.72;;;25.45;;
54428;SDS011;40337;52.978;6.310;2022-12-18T05:52:54;43.00;;;26.33;;
54428;SDS011;40337;52.978;6.310;2022-12-18T05:55:20;48.15;;;28.63;;
54428;SDS011;40337;52.978;6.310;2022-12-18T05:57:45;48.45;;;28.60;;
54428;SDS011;40337;52.978;6.310;2022-12-18T06:00:11;46.70;;;29.23;;
54428;SDS011;40337;52.978;6.310;2022-12-18T06:02:37;47.05;;;29.23;;
54428;SDS011;40337;52.978;6.310;2022-12-18T06:05:03;47.92;;;28.45;;
54428;SDS011;40337;52.978;6.310;2022-12-18T06:07:30;50.03;;;29.17;;
54428;SDS011;40337;52.978;6.310;2022-12-18T06:09:55;47.00;;;28.63;;
54428;SDS011;40337;52.978;6.310;2022-12-18T06:12:21;48.45;;;29.60;;
54428;SDS011;40337;52.978;6.310;2022-12-18T06:14:46;48.55;;;29.00;;
54428;SDS011;40337;52.978;6.310;2022-12-18T06:17:12;44.80;;;26.90;;
54428;SDS011;40337;52.978;6.310;2022-12-18T06:19:37;43.92;;;27.65;;
54428;SDS011;40337;52.978;6.310;2022-12-18T06:22:03;41.38;;;25.35;;
54428;SDS011;40337;52.978;6.310;2022-12-18T06:24:29;43.25;;;26.00;;
54428;SDS011;40337;52.978;6.310;2022-12-18T06:26:55;44.42;;;26.70;;
54428;SDS011;40337;52.978;6.310;2022-12-18T06:29:20;44.30;;;27.27;;
54428;SDS011;40337;52.978;6.310;2022-12-18T06:31:46;42.20;;;26.10;;
54428;SDS011;40337;52.978;6.310;2022-12-18T06:34:12;43.58;;;25.88;;
54428;SDS011;40337;52.978;6.310;2022-12-18T06:36:37;46.63;;;26.20;;
54428;SDS011;40337;52.978;6.310;2022-12-18T06:39:03;41.40;;;25.98;;
54428;SDS011;40337;52.978;6.310;2022-12-18T06:41:42;44.45;;;26.83;;
54428;SDS011;40337;52.978;6.310;2022-12-18T06:44:08;41.17;;;25.77;;
54428;SDS011;40337;52.978;6.310;2022-12-18T06:46:34;42.25;;;26.15;;
54428;SDS011;40337;52.978;6.310;2022-12-18T06:48:59;39.40;;;25.90;;
54428;SDS011;40337;52.978;6.310;2022-12-18T06:51:25;42.15;;;25.88;;
54428;SDS011;40337;52.978;6.310;2022-12-18T06:53:51;39.13;;;25.33;;
54428;SDS011;40337;52.978;6.310;2022-12-18T06:56:17;41.15;;;25.38;;
54428;SDS011;40337;52.978;6.310;2022-12-18T06:58:42;41.92;;;26.15;;
54428;SDS011;40337;52.978;6.310;2022-12-18T07:01:10;39.95;;;24.85;;
54428;SDS011;40337;52.978;6.310;2022-12-18T07:03:37;40.35;;;24.92;;
54428;SDS011;40337;52.978;6.310;2022-12-18T07:06:06;38.58;;;24.88;;
54428;SDS011;40337;52.978;6.310;2022-12-18T07:08:37;36.15;;;23.17;;
54428;SDS011;40337;52.978;6.310;2022-12-18T07:11:03;36.35;;;23.88;;
54428;SDS011;40337;52.978;6.310;2022-12-18T07:13:28;40.03;;;25.10;;
54428;SDS011;40337;52.978;6.310;2022-12-18T07:15:54;37.10;;;23.15;;
54428;SDS011;40337;52.978;6.310;2022-12-18T07:18:19;39.47;;;24.65;;
54428;SDS011;40337;52.978;6.310;2022-12-18T07:20:45;43.95;;;24.95;;
54428;SDS011;40337;52.978;6.310;2022-12-18T07:23:11;34.40;;;22.83;;
54428;SDS011;40337;52.978;6.310;2022-12-18T07:25:36;36.72;;;23.73;;
54428;SDS011;40337;52.978;6.310;2022-12-18T07:28:02;35.75;;;23.35;;
54428;SDS011;40337;52.978;6.310;2022-12-18T07:30:28;36.03;;;22.90;;
54428;SDS011;40337;52.978;6.310;2022-12-18T07:32:54;35.17;;;23.23;;
54428;SDS011;40337;52.978;6.310;2022-12-18T07:35:20;35.47;;;23.08;;
54428;SDS011;40337;52.978;6.310;2022-12-18T07:37:45;35.90;;;23.95;;
54428;SDS011;40337;52.978;6.310;2022-12-18T07:40:11;32.33;;;23.13;;
54428;SDS011;40337;52.978;6.310;2022-12-18T07:42:37;34.72;;;23.58;;
54428;SDS011;40337;52.978;6.310;2022-12-18T07:45:02;34.33;;;23.25;;
54428;SDS011;40337;52.978;6.310;2022-12-18T07:47:29;35.92;;;23.27;;
54428;SDS011;40337;52.978;6.310;2022-12-18T07:49:57;32.45;;;21.35;;
54428;SDS011;40337;52.978;6.310;2022-12-18T07:52:23;31.60;;;21.92;;
54428;SDS011;40337;52.978;6.310;2022-12-18T07:54:49;30.05;;;21.63;;
54428;SDS011;40337;52.978;6.310;2022-12-18T07:57:15;30.63;;;20.65;;
54428;SDS011;40337;52.978;6.310;2022-12-18T07:59:41;33.28;;;22.88;;
54428;SDS011;40337;52.978;6.310;2022-12-18T08:02:07;31.80;;;22.70;;
54428;SDS011;40337;52.978;6.310;2022-12-18T08:04:33;32.08;;;21.23;;
54428;SDS011;40337;52.978;6.310;2022-12-18T08:07:01;33.03;;;22.60;;
54428;SDS011;40337;52.978;6.310;2022-12-18T08:09:27;30.52;;;21.00;;
54428;SDS011;40337;52.978;6.310;2022-12-18T08:11:52;32.10;;;21.67;;
54428;SDS011;40337;52.978;6.310;2022-12-18T08:14:18;31.27;;;21.15;;
54428;SDS011;40337;52.978;6.310;2022-12-18T08:16:43;30.80;;;21.52;;
54428;SDS011;40337;52.978;6.310;2022-12-18T08:19:09;30.38;;;21.38;;
54428;SDS011;40337;52.978;6.310;2022-12-18T08:21:35;30.50;;;21.55;;
54428;SDS011;40337;52.978;6.310;2022-12-18T08:24:00;30.05;;;21.55;;
54428;SDS011;40337;52.978;6.310;2022-12-18T08:26:27;28.58;;;21.23;;
54428;SDS011;40337;52.978;6.310;2022-12-18T08:28:54;26.88;;;20.55;;
54428;SDS011;40337;52.978;6.310;2022-12-18T08:31:21;26.00;;;19.88;;
54428;SDS011;40337;52.978;6.310;2022-12-18T08:33:51;29.08;;;20.88;;
54428;SDS011;40337;52.978;6.310;2022-12-18T08:36:17;30.45;;;20.45;;
54428;SDS011;40337;52.978;6.310;2022-12-18T08:38:44;26.52;;;20.58;;
54428;SDS011;40337;52.978;6.310;2022-12-18T08:41:12;27.75;;;20.52;;
54428;SDS011;40337;52.978;6.310;2022-12-18T08:43:39;31.65;;;20.33;;
54428;SDS011;40337;52.978;6.310;2022-12-18T08:46:24;29.70;;;21.08;;
54428;SDS011;40337;52.978;6.310;2022-12-18T08:48:52;29.92;;;20.98;;
54428;SDS011;40337;52.978;6.310;2022-12-18T08:51:19;27.67;;;19.98;;
54428;SDS011;40337;52.978;6.310;2022-12-18T08:53:45;31.02;;;20.58;;
54428;SDS011;40337;52.978;6.310;2022-12-18T08:56:11;27.77;;;20.13;;
54428;SDS011;40337;52.978;6.310;2022-12-18T08:58:37;27.83;;;20.77;;
54428;SDS011;40337;52.978;6.310;2022-12-18T09:01:04;26.75;;;20.17;;
54428;SDS011;40337;52.978;6.310;2022-12-18T09:03:31;26.90;;;19.92;;
54428;SDS011;40337;52.978;6.310;2022-12-18T09:05:57;29.70;;;20.70;;
54428;SDS011;40337;52.978;6.310;2022-12-18T09:08:23;28.67;;;20.80;;
54428;SDS011;40337;52.978;6.310;2022-12-18T09:10:49;34.97;;;21.65;;
54428;SDS011;40337;52.978;6.310;2022-12-18T09:13:15;30.98;;;21.42;;
54428;SDS011;40337;52.978;6.310;2022-12-18T09:15:46;29.92;;;21.88;;
54428;SDS011;40337;52.978;6.310;2022-12-18T09:18:17;29.60;;;20.65;;
54428;SDS011;40337;52.978;6.310;2022-12-18T09:20:43;28.38;;;20.95;;
54428;SDS011;40337;52.978;6.310;2022-12-18T09:23:10;29.55;;;21.42;;
54428;SDS011;40337;52.978;6.310;2022-12-18T09:25:36;31.40;;;20.55;;
54428;SDS011;40337;52.978;6.310;2022-12-18T09:28:02;25.20;;;19.63;;
54428;SDS011;40337;52.978;6.310;2022-12-18T09:30:43;27.25;;;20.30;;
54428;SDS011;40337;52.978;6.310;2022-12-18T09:33:11;27.55;;;20.30;;
54428;SDS011;40337;52.978;6.310;2022-12-18T09:35:37;26.45;;;20.48;;
54428;SDS011;40337;52.978;6.310;2022-12-18T09:38:04;23.65;;;18.63;;
54428;SDS011;40337;52.978;6.310;2022-12-18T09:40:32;25.33;;;19.45;;
54428;SDS011;40337;52.978;6.310;2022-12-18T09:43:03;27.98;;;19.83;;
54428;SDS011;40337;52.978;6.310;2022-12-18T09:45:30;24.08;;;18.27;;
54428;SDS011;40337;52.978;6.310;2022-12-18T09:48:05;26.15;;;19.52;;
54428;SDS011;40337;52.978;6.310;2022-12-18T09:50:35;23.35;;;18.60;;
54428;SDS011;40337;52.978;6.310;2022-12-18T09:53:12;25.23;;;18.45;;
54428;SDS011;40337;52.978;6.310;2022-12-18T09:55:42;21.90;;;17.42;;
54428;SDS011;40337;52.978;6.310;2022-12-18T09:58:19;24.80;;;18.50;;
54428;SDS011;40337;52.978;6.310;2022-12-18T10:01:02;24.02;;;17.75;;
54428;SDS011;40337;52.978;6.310;2022-12-18T10:03:32;23.60;;;18.25;;
54428;SDS011;40337;52.978;6.310;2022-12-18T10:06:02;23.17;;;17.08;;
54428;SDS011;40337;52.978;6.310;2022-12-18T10:14:35;22.75;;;17.08;;
54428;SDS011;40337;52.978;6.310;2022-12-18T10:17:19;21.55;;;17.02;;
54428;SDS011;40337;52.978;6.310;2022-12-18T10:27:57;21.73;;;16.45;;
54428;SDS011;40337;52.978;6.310;2022-12-18T10:30:28;21.88;;;16.95;;
54428;SDS011;40337;52.978;6.310;2022-12-18T10:32:54;23.85;;;16.70;;
54428;SDS011;40337;52.978;6.310;2022-12-18T10:35:26;21.00;;;15.63;;
54428;SDS011;40337;52.978;6.310;2022-12-18T10:38:03;19.02;;;15.18;;
54428;SDS011;40337;52.978;6.310;2022-12-18T10:40:31;20.60;;;16.00;;
54428;SDS011;40337;52.978;6.310;2022-12-18T10:43:31;18.25;;;14.20;;
54428;SDS011;40337;52.978;6.310;2022-12-18T10:48:26;18.77;;;13.45;;
54428;SDS011;40337;52.978;6.310;2022-12-18T10:50:53;18.48;;;13.65;;
54428;SDS011;40337;52.978;6.310;2022-12-18T10:53:27;17.52;;;12.88;;
54428;SDS011;40337;52.978;6.310;2022-12-18T10:55:54;19.40;;;14.15;;
54428;SDS011;40337;52.978;6.310;2022-12-18T10:58:32;15.53;;;12.63;;
54428;SDS011;40337;52.978;6.310;2022-12-18T11:01:07;15.73;;;12.32;;
54428;SDS011;40337;52.978;6.310;2022-12-18T11:03:39;16.00;;;12.88;;
54428;SDS011;40337;52.978;6.310;2022-12-18T11:08:40;14.80;;;11.57;;
54428;SDS011;40337;52.978;6.310;2022-12-18T11:11:14;14.85;;;12.20;;
54428;SDS011;40337;52.978;6.310;2022-12-18T11:13:58;13.90;;;11.35;;
54428;SDS011;40337;52.978;6.310;2022-12-18T11:16:26;13.07;;;10.70;;
54428;SDS011;40337;52.978;6.310;2022-12-18T11:18:52;15.20;;;11.85;;
54428;SDS011;40337;52.978;6.310;2022-12-18T11:21:18;15.45;;;11.73;;
54428;SDS011;40337;52.978;6.310;2022-12-18T11:23:53;12.13;;;10.32;;
54428;SDS011;40337;52.978;6.310;2022-12-18T11:26:19;13.48;;;10.35;;
54428;SDS011;40337;52.978;6.310;2022-12-18T11:28:47;12.93;;;10.45;;
54428;SDS011;40337;52.978;6.310;2022-12-18T11:33:46;13.93;;;10.40;;
54428;SDS011;40337;52.978;6.310;2022-12-18T11:36:36;12.88;;;10.02;;
54428;SDS011;40337;52.978;6.310;2022-12-18T11:50:26;11.13;;;8.88;;
54428;SDS011;40337;52.978;6.310;2022-12-18T11:52:54;11.02;;;8.15;;
54428;SDS011;40337;52.978;6.310;2022-12-18T11:55:33;11.13;;;8.55;;
54428;SDS011;40337;52.978;6.310;2022-12-18T11:58:11;11.35;;;9.07;;
54428;SDS011;40337;52.978;6.310;2022-12-18T12:00:57;11.52;;;8.48;;
54428;SDS011;40337;52.978;6.310;2022-12-18T12:03:48;11.00;;;8.20;;
54428;SDS011;40337;52.978;6.310;2022-12-18T12:15:21;10.52;;;7.88;;
54428;SDS011;40337;52.978;6.310;2022-12-18T12:26:01;9.35;;;7.13;;
54428;SDS011;40337;52.978;6.310;2022-12-18T12:31:20;9.15;;;6.55;;
54428;SDS011;40337;52.978;6.310;2022-12-18T12:33:51;8.00;;;6.70;;
54428;SDS011;40337;52.978;6.310;2022-12-18T12:36:36;8.68;;;6.63;;
54428;SDS011;40337;52.978;6.310;2022-12-18T12:39:05;9.93;;;6.63;;
54428;SDS011;40337;52.978;6.310;2022-12-18T12:41:36;8.65;;;6.53;;
54428;SDS011;40337;52.978;6.310;2022-12-18T12:44:23;10.05;;;6.63;;
54428;SDS011;40337;52.978;6.310;2022-12-18T12:46:55;8.43;;;6.18;;
54428;SDS011;40337;52.978;6.310;2022-12-18T12:49:26;8.18;;;6.25;;
54428;SDS011;40337;52.978;6.310;2022-12-18T12:52:05;9.98;;;6.57;;
54428;SDS011;40337;52.978;6.310;2022-12-18T12:54:36;9.93;;;6.80;;
54428;SDS011;40337;52.978;6.310;2022-12-18T12:57:08;8.40;;;6.55;;
54428;SDS011;40337;52.978;6.310;2022-12-18T12:59:41;8.43;;;6.22;;
54428;SDS011;40337;52.978;6.310;2022-12-18T13:04:49;7.88;;;6.18;;
54428;SDS011;40337;52.978;6.310;2022-12-18T13:07:24;8.07;;;6.40;;
54428;SDS011;40337;52.978;6.310;2022-12-18T13:15:29;9.13;;;6.25;;
54428;SDS011;40337;52.978;6.310;2022-12-18T13:23:25;8.98;;;7.00;;
54428;SDS011;40337;52.978;6.310;2022-12-18T13:31:11;9.25;;;6.95;;
54428;SDS011;40337;52.978;6.310;2022-12-18T13:34:16;9.70;;;6.97;;
54428;SDS011;40337;52.978;6.310;2022-12-18T13:36:46;9.63;;;6.78;;
54428;SDS011;40337;52.978;6.310;2022-12-18T13:41:44;10.38;;;6.90;;
54428;SDS011;40337;52.978;6.310;2022-12-18T13:46:57;9.30;;;6.95;;
54428;SDS011;40337;52.978;6.310;2022-12-18T13:49:31;9.43;;;7.38;;
54428;SDS011;40337;52.978;6.310;2022-12-18T13:52:00;9.02;;;6.93;;
54428;SDS011;40337;52.978;6.310;2022-12-18T13:54:33;10.75;;;7.53;;
54428;SDS011;40337;52.978;6.310;2022-12-18T13:57:26;10.68;;;7.13;;
54428;SDS011;40337;52.978;6.310;2022-12-18T13:59:53;9.43;;;7.15;;
54428;SDS011;40337;52.978;6.310;2022-12-18T14:02:24;10.07;;;6.80;;
54428;SDS011;40337;52.978;6.310;2022-12-18T14:04:51;9.55;;;7.25;;
54428;SDS011;40337;52.978;6.310;2022-12-18T14:07:18;13.05;;;7.63;;
54428;SDS011;40337;52.978;6.310;2022-12-18T14:09:49;8.85;;;7.03;;
54428;SDS011;40337;52.978;6.310;2022-12-18T14:12:27;10.77;;;7.18;;
54428;SDS011;40337;52.978;6.310;2022-12-18T14:15:20;10.63;;;7.20;;
54428;SDS011;40337;52.978;6.310;2022-12-18T14:18:00;10.07;;;7.35;;
54428;SDS011;40337;52.978;6.310;2022-12-18T14:20:28;9.43;;;6.55;;
54428;SDS011;40337;52.978;6.310;2022-12-18T14:22:56;10.15;;;6.85;;
54428;SDS011;40337;52.978;6.310;2022-12-18T14:25:26;10.88;;;7.18;;
54428;SDS011;40337;52.978;6.310;2022-12-18T14:28:02;9.20;;;6.97;;
54428;SDS011;40337;52.978;6.310;2022-12-18T14:30:32;10.60;;;7.72;;
54428;SDS011;40337;52.978;6.310;2022-12-18T14:33:01;10.75;;;7.72;;
54428;SDS011;40337;52.978;6.310;2022-12-18T14:35:35;9.95;;;7.45;;
54428;SDS011;40337;52.978;6.310;2022-12-18T14:40:52;10.57;;;7.28;;
54428;SDS011;40337;52.978;6.310;2022-12-18T14:45:53;9.07;;;7.05;;
54428;SDS011;40337;52.978;6.310;2022-12-18T14:48:33;10.70;;;7.40;;
54428;SDS011;40337;52.978;6.310;2022-12-18T14:51:05;10.55;;;7.43;;
54428;SDS011;40337;52.978;6.310;2022-12-18T14:56:18;10.40;;;7.80;;
54428;SDS011;40337;52.978;6.310;2022-12-18T14:58:50;9.48;;;7.10;;
54428;SDS011;40337;52.978;6.310;2022-12-18T15:01:20;10.57;;;7.68;;
54428;SDS011;40337;52.978;6.310;2022-12-18T15:03:47;9.63;;;7.15;;
54428;SDS011;40337;52.978;6.310;2022-12-18T15:06:33;9.35;;;7.28;;
54428;SDS011;40337;52.978;6.310;2022-12-18T15:09:02;10.38;;;7.50;;
54428;SDS011;40337;52.978;6.310;2022-12-18T15:11:34;10.23;;;7.68;;
54428;SDS011;40337;52.978;6.310;2022-12-18T15:17:01;12.23;;;7.38;;
54428;SDS011;40337;52.978;6.310;2022-12-18T15:19:39;11.40;;;7.97;;
54428;SDS011;40337;52.978;6.310;2022-12-18T15:22:20;9.82;;;7.68;;
54428;SDS011;40337;52.978;6.310;2022-12-18T15:24:48;11.80;;;8.75;;
54428;SDS011;40337;52.978;6.310;2022-12-18T15:30:00;11.70;;;8.43;;
54428;SDS011;40337;52.978;6.310;2022-12-18T15:32:39;11.70;;;8.90;;
54428;SDS011;40337;52.978;6.310;2022-12-18T15:35:17;11.60;;;8.77;;
54428;SDS011;40337;52.978;6.310;2022-12-18T15:37:44;11.75;;;8.70;;
54428;SDS011;40337;52.978;6.310;2022-12-18T15:40:14;11.57;;;8.75;;
54428;SDS011;40337;52.978;6.310;2022-12-18T15:42:42;10.77;;;8.73;;
54428;SDS011;40337;52.978;6.310;2022-12-18T15:45:27;11.52;;;8.48;;
54428;SDS011;40337;52.978;6.310;2022-12-18T15:47:52;11.88;;;8.82;;
54428;SDS011;40337;52.978;6.310;2022-12-18T15:50:18;12.38;;;9.13;;
54428;SDS011;40337;52.978;6.310;2022-12-18T15:52:44;11.43;;;9.05;;
54428;SDS011;40337;52.978;6.310;2022-12-18T15:55:13;11.70;;;8.75;;
54428;SDS011;40337;52.978;6.310;2022-12-18T15:57:58;12.38;;;8.75;;
54428;SDS011;40337;52.978;6.310;2022-12-18T16:00:24;12.40;;;9.70;;
54428;SDS011;40337;52.978;6.310;2022-12-18T16:02:49;12.43;;;9.40;;
54428;SDS011;40337;52.978;6.310;2022-12-18T16:05:15;12.93;;;9.23;;
54428;SDS011;40337;52.978;6.310;2022-12-18T16:07:42;13.23;;;9.38;;
54428;SDS011;40337;52.978;6.310;2022-12-18T16:10:08;13.50;;;9.45;;
54428;SDS011;40337;52.978;6.310;2022-12-18T16:12:34;12.75;;;9.82;;
54428;SDS011;40337;52.978;6.310;2022-12-18T16:15:00;12.43;;;9.98;;
54428;SDS011;40337;52.978;6.310;2022-12-18T16:17:26;13.48;;;10.40;;
54428;SDS011;40337;52.978;6.310;2022-12-18T16:19:51;11.90;;;9.63;;
54428;SDS011;40337;52.978;6.310;2022-12-18T16:22:18;13.02;;;10.27;;
54428;SDS011;40337;52.978;6.310;2022-12-18T16:24:45;13.20;;;9.98;;
54428;SDS011;40337;52.978;6.310;2022-12-18T16:27:10;12.50;;;10.13;;